Hlavní strana
METAR-TAF:

METAR-TAF

Letiště :

Oberpfaffenhofen, Německo

zeměpisná šířka: 48-05N, zeměpisná délka: 011-17E, výška: 600 m

Aktuální stav počasí

Zpráva byla vytvořena před 47 minutami, v 16:50 UTC
Východoseverovýchodní vítr 13 kt
Teplota 3°C
Vlhkost vzduchu 60%
Tlak 1025 hPa
Viditelnost 10 km a více
Žádná oblačnost pod 1500 m, nevyskytují se cumulonimby.

METAR: EDMO 171650Z 07013KT CAVOK 03/M04 Q1025

Čas: 18:37 (17:37 UTC)

Předpověď počasí

Zpráva byla vytvořena před 37 minutami, v 17:00 UTC
Předpověď platná od 16 v 18 UTC do 17 v 03 UTC
Východoseverovýchodní vítr 8 kt
Viditelnost 10 km a více
Žádná oblačnost pod 1500 m, nevyskytují se cumulonimby.

TAF: EDMO 161700Z 1618/1703 07008KT CAVOK

Stav a předpovědi počasí z více než 4 000 letišť (zprávy METAR a TAF).

Červené a žluté tečky na mapě představují dostupné meteorologické stanice.

Když kurzor umístíte na tečku, zobrazí se název stanice.

Pak kliknutím zobrazíte stav a předpověď počasí.

Chcete-li změnit mapu, kliknutím na zelené tlačítko se znaménkem +mapu přiblížíte, kliknutím na zelené tlačítko se znaménkem – mapu oddálíte a kliknutím na zelené šipky přejdete na sousední mapy.


METAR-TAF: